Orange8 — JL6278 — position and weather

sailwx.info

Track history (hours):
 
Tides and Currents Weather Stations Pressure Air Temp Water Temp Dewpoint Dewpoint Depression Visibility Wind Speed Wind Dir Waves Ship Positions

Orange8

Last reported at 2014-Oct-31 14:32 UTC. Time now 2014-Oct-31 17:16 UTC.
Position N 34°37' E 134°57'.

Length 164 m; draft 5 m.

Type: Passenger vessel. MMSI: 431501603.

Date/timePositionNaut miles runAvg speedWind from/ knotsBaromVisibWave heightAir tempDewpointWater temp
2014-Oct-31 14:32N 34°37' E 134°57'1717.7
2014-Oct-31 13:34N 34°36' E 135°18'6 6.0
2014-Oct-31 12:33N 34°37' E 135°26'0 0.0
2014-Oct-31 11:33N 34°37' E 135°26'0 0.0
2014-Oct-31 10:27N 34°37' E 135°26'0 0.0
2014-Oct-31 09:30N 34°37' E 135°26'0 0.0
2014-Oct-31 08:30N 34°37' E 135°26'0 0.0
2014-Oct-31 07:30N 34°37' E 135°26'0 0.0
2014-Oct-31 06:18N 34°37' E 135°26'0 0.0
2014-Oct-31 05:30N 34°37' E 135°26'0 0.0
2014-Oct-31 04:24N 34°37' E 135°26'0 0.0
2014-Oct-31 03:30N 34°37' E 135°26'0 0.0
2014-Oct-31 02:30N 34°37' E 135°26'0 0.0
2014-Oct-31 01:24N 34°37' E 135°26'0 0.0
2014-Oct-31 00:30N 34°37' E 135°26'0 0.0
2014-Oct-30 23:30N 34°37' E 135°26'0 0.0
2014-Oct-30 22:30N 34°37' E 135°26'0 0.0
2014-Oct-30 21:18N 34°37' E 135°26'6 8.7
2014-Oct-30 20:33N 34°36' E 135°18'1818.5
2014-Oct-30 19:34N 34°36' E 134°56'2 0.1
2014-Oct-29 14:33N 34°37' E 134°58'1717.6
2014-Oct-29 13:33N 34°37' E 135°19'6 5.7
2014-Oct-29 12:33N 34°37' E 135°26'0 0.0
2014-Oct-29 10:33N 34°37' E 135°26'0 0.0
2014-Oct-29 09:33N 34°37' E 135°26'0 0.0
2014-Oct-29 08:09N 34°37' E 135°26'0 0.0
2014-Oct-29 07:33N 34°37' E 135°26'0 0.0
2014-Oct-29 06:33N 34°37' E 135°26'0 0.0
2014-Oct-29 05:27N 34°37' E 135°26'0 0.0
2014-Oct-29 04:33N 34°37' E 135°26'0 0.0
2014-Oct-29 03:33N 34°37' E 135°26'0 0.0
2014-Oct-29 02:33N 34°37' E 135°26'0 0.0
2014-Oct-29 01:21N 34°37' E 135°26'0 0.0
2014-Oct-29 00:33N 34°37' E 135°26'0 0.0
2014-Oct-28 23:21N 34°37' E 135°26'0 0.0
2014-Oct-28 22:27N 34°37' E 135°26'0 0.0
2014-Oct-28 21:12N 34°37' E 135°26'5 8.3
2014-Oct-28 20:33N 34°36' E 135°19'1818.3
2014-Oct-28 19:33N 34°36' E 134°57'1 0.0
2014-Oct-27 14:31N 34°37' E 134°56'1818.8
2014-Oct-27 13:33N 34°37' E 135°18'7 2.1
2014-Oct-27 10:29N 34°37' E 135°26'0 0.0
2014-Oct-27 09:29N 34°37' E 135°26'0 0.0
2014-Oct-27 08:23N 34°37' E 135°26'0 0.0
2014-Oct-27 07:11N 34°37' E 135°26'0 0.0
2014-Oct-27 06:29N 34°37' E 135°26'0 0.0
2014-Oct-27 05:23N 34°37' E 135°26'0 0.0
2014-Oct-27 04:23N 34°37' E 135°26'0 0.0
2014-Oct-27 03:23N 34°37' E 135°26'0 0.0
2014-Oct-27 02:29N 34°37' E 135°26'0 0.0
2014-Oct-27 01:29N 34°37' E 135°26'0 0.0
2014-Oct-27 00:29N 34°37' E 135°26'0 0.0
2014-Oct-26 23:29N 34°37' E 135°26'0 0.0
2014-Oct-26 21:17N 34°37' E 135°26'5 7.6
2014-Oct-26 20:33N 34°36' E 135°19'1717.2
2014-Oct-26 19:33N 34°37' E 134°58'3 0.1
2014-Oct-25 14:33N 34°36' E 134°55'1918.9
2014-Oct-25 13:33N 34°36' E 135°18'6 5.3
2014-Oct-25 12:22N 34°37' E 135°26'0 0.0
2014-Oct-25 11:22N 34°37' E 135°26'0 0.0
2014-Oct-25 10:22N 34°37' E 135°26'0 0.0
2014-Oct-25 09:16N 34°37' E 135°26'0 0.0
2014-Oct-25 08:28N 34°37' E 135°26'0 0.0
2014-Oct-25 07:22N 34°37' E 135°26'0 0.0
2014-Oct-25 06:28N 34°37' E 135°26'0 0.0
2014-Oct-25 05:16N 34°37' E 135°26'0 0.0
2014-Oct-25 04:10N 34°37' E 135°26'0 0.0
2014-Oct-25 03:28N 34°37' E 135°26'0 0.0
2014-Oct-25 02:28N 34°37' E 135°26'0 0.0
2014-Oct-25 01:28N 34°37' E 135°26'0 0.0
2014-Oct-25 00:28N 34°37' E 135°26'0 0.0
2014-Oct-24 23:04N 34°37' E 135°26'0 0.0
2014-Oct-24 22:10N 34°37' E 135°26'0 0.0
2014-Oct-24 21:22N 34°37' E 135°26'6 6.9
2014-Oct-24 20:33N 34°36' E 135°19'1817.8
2014-Oct-24 19:33N 34°36' E 134°58'1 0.0
2014-Oct-23 14:33N 34°37' E 134°57'1818.3
2014-Oct-23 13:33N 34°36' E 135°19'6 5.4
2014-Oct-23 12:32N 34°37' E 135°26'0 0.0
2014-Oct-23 11:32N 34°37' E 135°26'0 0.0
2014-Oct-23 10:32N 34°37' E 135°26'0 0.0
2014-Oct-23 09:32N 34°37' E 135°26'0 0.0
2014-Oct-23 08:32N 34°37' E 135°26'0 0.0
2014-Oct-23 07:26N 34°37' E 135°26'0 0.0
2014-Oct-23 06:32N 34°37' E 135°26'0 0.0
2014-Oct-23 05:26N 34°37' E 135°26'0 0.0
2014-Oct-23 04:32N 34°37' E 135°26'0 0.0
2014-Oct-23 03:32N 34°37' E 135°26'0 0.0
2014-Oct-23 02:32N 34°37' E 135°26'0 0.0
2014-Oct-23 01:32N 34°37' E 135°26'0 0.0
2014-Oct-23 00:26N 34°37' E 135°26'0 0.0
2014-Oct-22 23:32N 34°37' E 135°26'0 0.0
2014-Oct-22 22:32N 34°37' E 135°26'0 0.0
2014-Oct-22 21:32N 34°37' E 135°26'5 5.5
2014-Oct-22 20:33N 34°36' E 135°19'1817.7
2014-Oct-22 19:33N 34°37' E 134°58'11 0.4
2014-Oct-21 15:08N 34°33' E 134°46'1017.6
2014-Oct-21 14:33N 34°37' E 134°57'  
Track history (hours):
 
Tides and Currents Weather Stations Pressure Air Temp Water Temp Dewpoint Dewpoint Depression Visibility Wind Speed Wind Dir Waves Ship Positions

Orange8

Last reported at 2014-Oct-31 14:32 UTC. Time now 2014-Oct-31 17:16 UTC.
Position N 34°37' E 134°57'.

Length 164 m; draft 5 m.

Type: Passenger vessel. MMSI: 431501603.

Date/timePositionNaut miles runAvg speedWind from/ knotsBaromVisibWave heightAir tempDewpointWater temp
2014-Oct-31 14:32N 34°37' E 134°57'1717.7
2014-Oct-31 13:34N 34°36' E 135°18'6 6.0
2014-Oct-31 12:33N 34°37' E 135°26'0 0.0
2014-Oct-31 11:33N 34°37' E 135°26'0 0.0
2014-Oct-31 10:27N 34°37' E 135°26'0 0.0
2014-Oct-31 09:30N 34°37' E 135°26'0 0.0
2014-Oct-31 08:30N 34°37' E 135°26'0 0.0
2014-Oct-31 07:30N 34°37' E 135°26'0 0.0
2014-Oct-31 06:18N 34°37' E 135°26'0 0.0
2014-Oct-31 05:30N 34°37' E 135°26'0 0.0
2014-Oct-31 04:24N 34°37' E 135°26'0 0.0
2014-Oct-31 03:30N 34°37' E 135°26'0 0.0
2014-Oct-31 02:30N 34°37' E 135°26'0 0.0
2014-Oct-31 01:24N 34°37' E 135°26'0 0.0
2014-Oct-31 00:30N 34°37' E 135°26'0 0.0
2014-Oct-30 23:30N 34°37' E 135°26'0 0.0
2014-Oct-30 22:30N 34°37' E 135°26'0 0.0
2014-Oct-30 21:18N 34°37' E 135°26'6 8.7
2014-Oct-30 20:33N 34°36' E 135°18'1818.5
2014-Oct-30 19:34N 34°36' E 134°56'2 0.1
2014-Oct-29 14:33N 34°37' E 134°58'1717.6
2014-Oct-29 13:33N 34°37' E 135°19'6 5.7
2014-Oct-29 12:33N 34°37' E 135°26'0 0.0
2014-Oct-29 10:33N 34°37' E 135°26'0 0.0
2014-Oct-29 09:33N 34°37' E 135°26'0 0.0
2014-Oct-29 08:09N 34°37' E 135°26'0 0.0
2014-Oct-29 07:33N 34°37' E 135°26'0 0.0
2014-Oct-29 06:33N 34°37' E 135°26'0 0.0
2014-Oct-29 05:27N 34°37' E 135°26'0 0.0
2014-Oct-29 04:33N 34°37' E 135°26'0 0.0
2014-Oct-29 03:33N 34°37' E 135°26'0 0.0
2014-Oct-29 02:33N 34°37' E 135°26'0 0.0
2014-Oct-29 01:21N 34°37' E 135°26'0 0.0
2014-Oct-29 00:33N 34°37' E 135°26'0 0.0
2014-Oct-28 23:21N 34°37' E 135°26'0 0.0
2014-Oct-28 22:27N 34°37' E 135°26'0 0.0
2014-Oct-28 21:12N 34°37' E 135°26'5 8.3
2014-Oct-28 20:33N 34°36' E 135°19'1818.3
2014-Oct-28 19:33N 34°36' E 134°57'1 0.0
2014-Oct-27 14:31N 34°37' E 134°56'1818.8
2014-Oct-27 13:33N 34°37' E 135°18'7 2.1
2014-Oct-27 10:29N 34°37' E 135°26'0 0.0
2014-Oct-27 09:29N 34°37' E 135°26'0 0.0
2014-Oct-27 08:23N 34°37' E 135°26'0 0.0
2014-Oct-27 07:11N 34°37' E 135°26'0 0.0
2014-Oct-27 06:29N 34°37' E 135°26'0 0.0
2014-Oct-27 05:23N 34°37' E 135°26'0 0.0
2014-Oct-27 04:23N 34°37' E 135°26'0 0.0
2014-Oct-27 03:23N 34°37' E 135°26'0 0.0
2014-Oct-27 02:29N 34°37' E 135°26'0 0.0
2014-Oct-27 01:29N 34°37' E 135°26'0 0.0
2014-Oct-27 00:29N 34°37' E 135°26'0 0.0
2014-Oct-26 23:29N 34°37' E 135°26'0 0.0
2014-Oct-26 21:17N 34°37' E 135°26'5 7.6
2014-Oct-26 20:33N 34°36' E 135°19'1717.2
2014-Oct-26 19:33N 34°37' E 134°58'3 0.1
2014-Oct-25 14:33N 34°36' E 134°55'1918.9
2014-Oct-25 13:33N 34°36' E 135°18'6 5.3
2014-Oct-25 12:22N 34°37' E 135°26'0 0.0
2014-Oct-25 11:22N 34°37' E 135°26'0 0.0
2014-Oct-25 10:22N 34°37' E 135°26'0 0.0
2014-Oct-25 09:16N 34°37' E 135°26'0 0.0
2014-Oct-25 08:28N 34°37' E 135°26'0 0.0
2014-Oct-25 07:22N 34°37' E 135°26'0 0.0
2014-Oct-25 06:28N 34°37' E 135°26'0 0.0
2014-Oct-25 05:16N 34°37' E 135°26'0 0.0
2014-Oct-25 04:10N 34°37' E 135°26'0 0.0
2014-Oct-25 03:28N 34°37' E 135°26'0 0.0
2014-Oct-25 02:28N 34°37' E 135°26'0 0.0
2014-Oct-25 01:28N 34°37' E 135°26'0 0.0
2014-Oct-25 00:28N 34°37' E 135°26'0 0.0
2014-Oct-24 23:04N 34°37' E 135°26'0 0.0
2014-Oct-24 22:10N 34°37' E 135°26'0 0.0
2014-Oct-24 21:22N 34°37' E 135°26'6 6.9
2014-Oct-24 20:33N 34°36' E 135°19'1817.8
2014-Oct-24 19:33N 34°36' E 134°58'1 0.0
2014-Oct-23 14:33N 34°37' E 134°57'1818.3
2014-Oct-23 13:33N 34°36' E 135°19'6 5.4
2014-Oct-23 12:32N 34°37' E 135°26'0 0.0
2014-Oct-23 11:32N 34°37' E 135°26'0 0.0
2014-Oct-23 10:32N 34°37' E 135°26'0 0.0
2014-Oct-23 09:32N 34°37' E 135°26'0 0.0
2014-Oct-23 08:32N 34°37' E 135°26'0 0.0
2014-Oct-23 07:26N 34°37' E 135°26'0 0.0
2014-Oct-23 06:32N 34°37' E 135°26'0 0.0
2014-Oct-23 05:26N 34°37' E 135°26'0 0.0
2014-Oct-23 04:32N 34°37' E 135°26'0 0.0
2014-Oct-23 03:32N 34°37' E 135°26'0 0.0
2014-Oct-23 02:32N 34°37' E 135°26'0 0.0
2014-Oct-23 01:32N 34°37' E 135°26'0 0.0
2014-Oct-23 00:26N 34°37' E 135°26'0 0.0
2014-Oct-22 23:32N 34°37' E 135°26'0 0.0
2014-Oct-22 22:32N 34°37' E 135°26'0 0.0
2014-Oct-22 21:32N 34°37' E 135°26'5 5.5
2014-Oct-22 20:33N 34°36' E 135°19'1817.7
2014-Oct-22 19:33N 34°37' E 134°58'11 0.4
2014-Oct-21 15:08N 34°33' E 134°46'1017.6
2014-Oct-21 14:33N 34°37' E 134°57'  

Dump ship's entire track history